sensor_id;sensor_type;location;lat;lon;timestamp;P1;durP1;ratioP1;P2;durP2;ratioP2
66707;SDS011;53622;0.000;0.000;2023-05-16T00:00:35;2.45;;;2.25;;
66707;SDS011;53622;0.000;0.000;2023-05-16T00:03:06;2.50;;;2.30;;
66707;SDS011;53622;0.000;0.000;2023-05-16T00:05:36;2.38;;;2.17;;
66707;SDS011;53622;0.000;0.000;2023-05-16T00:08:06;2.65;;;2.45;;
66707;SDS011;53622;0.000;0.000;2023-05-16T00:10:35;2.58;;;2.38;;
66707;SDS011;53622;0.000;0.000;2023-05-16T00:13:04;3.72;;;2.40;;
66707;SDS011;53622;0.000;0.000;2023-05-16T00:15:34;2.38;;;2.10;;
66707;SDS011;53622;0.000;0.000;2023-05-16T00:18:06;2.60;;;2.40;;
66707;SDS011;53622;0.000;0.000;2023-05-16T00:20:36;2.22;;;2.03;;
66707;SDS011;53622;0.000;0.000;2023-05-16T00:23:05;2.30;;;2.10;;
66707;SDS011;53622;0.000;0.000;2023-05-16T00:25:34;2.60;;;2.40;;
66707;SDS011;53622;0.000;0.000;2023-05-16T00:28:04;3.78;;;2.60;;
66707;SDS011;53622;0.000;0.000;2023-05-16T00:30:33;2.50;;;2.30;;
66707;SDS011;53622;0.000;0.000;2023-05-16T00:33:03;3.67;;;2.30;;
66707;SDS011;53622;0.000;0.000;2023-05-16T00:35:33;3.10;;;2.80;;
66707;SDS011;53622;0.000;0.000;2023-05-16T00:38:03;3.40;;;2.60;;
66707;SDS011;53622;0.000;0.000;2023-05-16T00:40:32;2.70;;;2.50;;
66707;SDS011;53622;0.000;0.000;2023-05-16T00:43:01;2.60;;;2.40;;
66707;SDS011;53622;0.000;0.000;2023-05-16T00:45:30;2.70;;;2.50;;
66707;SDS011;53622;0.000;0.000;2023-05-16T00:48:00;2.70;;;2.50;;
66707;SDS011;53622;0.000;0.000;2023-05-16T00:50:31;2.60;;;2.40;;
66707;SDS011;53622;0.000;0.000;2023-05-16T00:53:02;2.60;;;2.40;;
66707;SDS011;53622;0.000;0.000;2023-05-16T00:55:31;2.50;;;2.30;;
66707;SDS011;53622;0.000;0.000;2023-05-16T00:58:01;2.65;;;2.45;;
66707;SDS011;53622;0.000;0.000;2023-05-16T01:00:30;2.45;;;2.25;;
66707;SDS011;53622;0.000;0.000;2023-05-16T01:03:00;3.78;;;2.50;;
66707;SDS011;53622;0.000;0.000;2023-05-16T01:05:30;2.80;;;2.60;;
66707;SDS011;53622;0.000;0.000;2023-05-16T01:08:01;2.67;;;2.47;;
66707;SDS011;53622;0.000;0.000;2023-05-16T01:10:31;2.53;;;2.33;;
66707;SDS011;53622;0.000;0.000;2023-05-16T01:13:08;2.40;;;2.20;;
66707;SDS011;53622;0.000;0.000;2023-05-16T01:15:43;2.55;;;2.35;;
66707;SDS011;53622;0.000;0.000;2023-05-16T01:18:21;4.03;;;2.45;;
66707;SDS011;53622;0.000;0.000;2023-05-16T01:20:58;2.80;;;2.60;;
66707;SDS011;53622;0.000;0.000;2023-05-16T01:23:39;2.88;;;2.67;;
66707;SDS011;53622;0.000;0.000;2023-05-16T01:26:17;3.10;;;2.83;;
66707;SDS011;53622;0.000;0.000;2023-05-16T01:28:48;2.83;;;2.63;;
66707;SDS011;53622;0.000;0.000;2023-05-16T01:31:19;2.50;;;2.35;;
66707;SDS011;53622;0.000;0.000;2023-05-16T01:33:50;2.55;;;2.35;;
66707;SDS011;53622;0.000;0.000;2023-05-16T01:36:21;3.08;;;2.88;;
66707;SDS011;53622;0.000;0.000;2023-05-16T01:39:00;4.03;;;2.45;;
66707;SDS011;53622;0.000;0.000;2023-05-16T01:41:37;2.72;;;2.53;;
66707;SDS011;53622;0.000;0.000;2023-05-16T01:44:14;2.88;;;2.58;;
66707;SDS011;53622;0.000;0.000;2023-05-16T01:46:49;3.25;;;2.40;;
66707;SDS011;53622;0.000;0.000;2023-05-16T01:49:25;2.60;;;2.40;;
66707;SDS011;53622;0.000;0.000;2023-05-16T01:52:04;2.50;;;2.40;;
66707;SDS011;53622;0.000;0.000;2023-05-16T01:54:39;2.90;;;2.65;;
66707;SDS011;53622;0.000;0.000;2023-05-16T01:57:13;2.85;;;2.50;;
66707;SDS011;53622;0.000;0.000;2023-05-16T01:59:44;2.70;;;2.50;;
66707;SDS011;53622;0.000;0.000;2023-05-16T02:02:16;2.50;;;2.30;;
66707;SDS011;53622;0.000;0.000;2023-05-16T02:04:46;2.72;;;2.53;;
66707;SDS011;53622;0.000;0.000;2023-05-16T02:07:15;2.60;;;2.40;;
66707;SDS011;53622;0.000;0.000;2023-05-16T02:09:44;2.58;;;2.38;;
66707;SDS011;53622;0.000;0.000;2023-05-16T02:12:15;2.45;;;2.25;;
66707;SDS011;53622;0.000;0.000;2023-05-16T02:14:44;3.15;;;2.28;;
66707;SDS011;53622;0.000;0.000;2023-05-16T02:17:13;2.55;;;2.30;;
66707;SDS011;53622;0.000;0.000;2023-05-16T02:19:43;2.42;;;2.22;;
66707;SDS011;53622;0.000;0.000;2023-05-16T02:22:12;2.50;;;2.30;;
66707;SDS011;53622;0.000;0.000;2023-05-16T02:24:41;2.70;;;2.50;;
66707;SDS011;53622;0.000;0.000;2023-05-16T02:27:11;2.20;;;2.00;;
66707;SDS011;53622;0.000;0.000;2023-05-16T02:29:42;2.72;;;2.33;;
66707;SDS011;53622;0.000;0.000;2023-05-16T02:32:11;2.50;;;2.28;;
66707;SDS011;53622;0.000;0.000;2023-05-16T02:34:40;2.50;;;2.30;;
66707;SDS011;53622;0.000;0.000;2023-05-16T02:37:09;2.08;;;1.98;;
66707;SDS011;53622;0.000;0.000;2023-05-16T02:39:39;2.38;;;2.17;;
66707;SDS011;53622;0.000;0.000;2023-05-16T02:42:09;2.03;;;1.83;;
66707;SDS011;53622;0.000;0.000;2023-05-16T02:44:38;2.13;;;1.95;;
66707;SDS011;53622;0.000;0.000;2023-05-16T02:47:09;2.85;;;1.92;;
66707;SDS011;53622;0.000;0.000;2023-05-16T02:49:38;1.90;;;1.80;;
66707;SDS011;53622;0.000;0.000;2023-05-16T02:52:07;1.90;;;1.80;;
66707;SDS011;53622;0.000;0.000;2023-05-16T02:54:38;2.25;;;2.05;;
66707;SDS011;53622;0.000;0.000;2023-05-16T02:57:07;1.90;;;1.80;;
66707;SDS011;53622;0.000;0.000;2023-05-16T02:59:36;2.28;;;1.70;;
66707;SDS011;53622;0.000;0.000;2023-05-16T03:02:06;2.05;;;1.95;;
66707;SDS011;53622;0.000;0.000;2023-05-16T03:04:37;1.80;;;1.70;;
66707;SDS011;53622;0.000;0.000;2023-05-16T03:07:06;1.98;;;1.80;;
66707;SDS011;53622;0.000;0.000;2023-05-16T03:09:35;2.35;;;2.15;;
66707;SDS011;53622;0.000;0.000;2023-05-16T03:12:04;2.20;;;2.00;;
66707;SDS011;53622;0.000;0.000;2023-05-16T03:14:34;2.75;;;1.85;;
66707;SDS011;53622;0.000;0.000;2023-05-16T03:17:03;2.20;;;2.00;;
66707;SDS011;53622;0.000;0.000;2023-05-16T03:19:32;2.15;;;1.90;;
66707;SDS011;53622;0.000;0.000;2023-05-16T03:22:03;1.80;;;1.70;;
66707;SDS011;53622;0.000;0.000;2023-05-16T03:24:32;2.10;;;2.00;;
66707;SDS011;53622;0.000;0.000;2023-05-16T03:27:02;2.20;;;2.00;;
66707;SDS011;53622;0.000;0.000;2023-05-16T03:29:31;2.05;;;1.95;;
66707;SDS011;53622;0.000;0.000;2023-05-16T03:32:01;2.10;;;2.00;;
66707;SDS011;53622;0.000;0.000;2023-05-16T03:34:31;2.33;;;1.73;;
66707;SDS011;53622;0.000;0.000;2023-05-16T03:37:00;2.20;;;2.00;;
66707;SDS011;53622;0.000;0.000;2023-05-16T03:39:31;2.05;;;1.95;;
66707;SDS011;53622;0.000;0.000;2023-05-16T03:42:00;2.40;;;2.20;;
66707;SDS011;53622;0.000;0.000;2023-05-16T03:44:30;2.53;;;2.30;;
66707;SDS011;53622;0.000;0.000;2023-05-16T03:46:59;2.40;;;2.20;;
66707;SDS011;53622;0.000;0.000;2023-05-16T03:49:28;2.60;;;2.40;;
66707;SDS011;53622;0.000;0.000;2023-05-16T03:51:58;2.35;;;2.15;;
66707;SDS011;53622;0.000;0.000;2023-05-16T03:54:27;2.83;;;2.20;;
66707;SDS011;53622;0.000;0.000;2023-05-16T03:56:57;2.42;;;2.22;;
66707;SDS011;53622;0.000;0.000;2023-05-16T03:59:27;2.22;;;2.03;;
66707;SDS011;53622;0.000;0.000;2023-05-16T04:01:56;2.60;;;2.40;;
66707;SDS011;53622;0.000;0.000;2023-05-16T04:04:25;2.42;;;2.22;;
66707;SDS011;53622;0.000;0.000;2023-05-16T04:06:54;2.65;;;2.20;;
66707;SDS011;53622;0.000;0.000;2023-05-16T04:09:23;2.40;;;2.20;;
66707;SDS011;53622;0.000;0.000;2023-05-16T04:11:53;6.28;;;3.05;;
66707;SDS011;53622;0.000;0.000;2023-05-16T04:14:24;3.50;;;3.17;;
66707;SDS011;53622;0.000;0.000;2023-05-16T04:16:53;8.73;;;2.90;;
66707;SDS011;53622;0.000;0.000;2023-05-16T04:19:23;4.70;;;2.80;;
66707;SDS011;53622;0.000;0.000;2023-05-16T04:21:52;4.55;;;2.75;;
66707;SDS011;53622;0.000;0.000;2023-05-16T04:24:21;4.07;;;2.38;;
66707;SDS011;53622;0.000;0.000;2023-05-16T04:26:52;4.18;;;2.45;;
66707;SDS011;53622;0.000;0.000;2023-05-16T04:29:22;4.70;;;2.90;;
66707;SDS011;53622;0.000;0.000;2023-05-16T04:31:52;2.70;;;2.50;;
66707;SDS011;53622;0.000;0.000;2023-05-16T04:34:22;4.20;;;2.40;;
66707;SDS011;53622;0.000;0.000;2023-05-16T04:36:54;2.90;;;2.63;;
66707;SDS011;53622;0.000;0.000;2023-05-16T04:39:24;3.28;;;2.70;;
66707;SDS011;53622;0.000;0.000;2023-05-16T04:41:53;4.03;;;2.85;;
66707;SDS011;53622;0.000;0.000;2023-05-16T04:44:26;4.10;;;2.70;;
66707;SDS011;53622;0.000;0.000;2023-05-16T04:46:56;5.90;;;2.85;;
66707;SDS011;53622;0.000;0.000;2023-05-16T04:49:25;4.10;;;2.58;;
66707;SDS011;53622;0.000;0.000;2023-05-16T04:51:55;3.15;;;2.95;;
66707;SDS011;53622;0.000;0.000;2023-05-16T04:54:24;2.85;;;2.60;;
66707;SDS011;53622;0.000;0.000;2023-05-16T04:56:53;2.88;;;2.50;;
66707;SDS011;53622;0.000;0.000;2023-05-16T04:59:23;4.25;;;3.03;;
66707;SDS011;53622;0.000;0.000;2023-05-16T05:01:54;4.35;;;2.97;;
66707;SDS011;53622;0.000;0.000;2023-05-16T05:04:23;3.42;;;3.10;;
66707;SDS011;53622;0.000;0.000;2023-05-16T05:06:52;2.80;;;2.60;;
66707;SDS011;53622;0.000;0.000;2023-05-16T05:09:22;2.97;;;2.78;;
66707;SDS011;53622;0.000;0.000;2023-05-16T05:11:51;2.60;;;2.42;;
66707;SDS011;53622;0.000;0.000;2023-05-16T05:14:20;2.83;;;2.63;;
66707;SDS011;53622;0.000;0.000;2023-05-16T05:16:49;2.95;;;2.75;;
66707;SDS011;53622;0.000;0.000;2023-05-16T05:19:20;4.72;;;2.92;;
66707;SDS011;53622;0.000;0.000;2023-05-16T05:21:50;2.90;;;2.70;;
66707;SDS011;53622;0.000;0.000;2023-05-16T05:24:19;2.97;;;2.70;;
66707;SDS011;53622;0.000;0.000;2023-05-16T05:26:48;3.55;;;2.78;;
66707;SDS011;53622;0.000;0.000;2023-05-16T05:29:18;4.07;;;3.08;;
66707;SDS011;53622;0.000;0.000;2023-05-16T05:31:47;3.92;;;3.05;;
66707;SDS011;53622;0.000;0.000;2023-05-16T05:34:17;3.33;;;3.03;;
66707;SDS011;53622;0.000;0.000;2023-05-16T05:36:47;3.03;;;2.75;;
66707;SDS011;53622;0.000;0.000;2023-05-16T05:39:17;3.33;;;3.00;;
66707;SDS011;53622;0.000;0.000;2023-05-16T05:41:46;3.05;;;2.63;;
66707;SDS011;53622;0.000;0.000;2023-05-16T05:44:15;3.03;;;2.80;;
66707;SDS011;53622;0.000;0.000;2023-05-16T05:46:45;2.72;;;2.20;;
66707;SDS011;53622;0.000;0.000;2023-05-16T05:49:14;2.90;;;2.30;;
66707;SDS011;53622;0.000;0.000;2023-05-16T05:51:43;2.55;;;2.35;;
66707;SDS011;53622;0.000;0.000;2023-05-16T05:54:14;2.50;;;2.30;;
66707;SDS011;53622;0.000;0.000;2023-05-16T05:56:43;3.45;;;2.40;;
66707;SDS011;53622;0.000;0.000;2023-05-16T05:59:13;2.40;;;2.22;;
66707;SDS011;53622;0.000;0.000;2023-05-16T06:01:42;3.17;;;2.20;;
66707;SDS011;53622;0.000;0.000;2023-05-16T06:04:12;2.55;;;2.35;;
66707;SDS011;53622;0.000;0.000;2023-05-16T06:06:41;2.63;;;2.42;;
66707;SDS011;53622;0.000;0.000;2023-05-16T06:09:10;2.83;;;2.58;;
66707;SDS011;53622;0.000;0.000;2023-05-16T06:11:42;2.35;;;2.00;;
66707;SDS011;53622;0.000;0.000;2023-05-16T06:14:12;2.40;;;2.20;;
66707;SDS011;53622;0.000;0.000;2023-05-16T06:16:42;2.22;;;2.05;;
66707;SDS011;53622;0.000;0.000;2023-05-16T06:19:11;2.28;;;2.08;;
66707;SDS011;53622;0.000;0.000;2023-05-16T06:21:42;2.20;;;2.05;;
66707;SDS011;53622;0.000;0.000;2023-05-16T06:24:12;2.05;;;1.90;;
66707;SDS011;53622;0.000;0.000;2023-05-16T06:26:42;2.33;;;2.15;;
66707;SDS011;53622;0.000;0.000;2023-05-16T06:29:15;2.60;;;2.10;;
66707;SDS011;53622;0.000;0.000;2023-05-16T06:31:45;2.40;;;2.20;;
66707;SDS011;53622;0.000;0.000;2023-05-16T06:34:14;2.45;;;2.13;;
66707;SDS011;53622;0.000;0.000;2023-05-16T06:36:43;2.42;;;2.22;;
66707;SDS011;53622;0.000;0.000;2023-05-16T06:39:13;3.83;;;2.45;;
66707;SDS011;53622;0.000;0.000;2023-05-16T06:41:43;2.72;;;2.38;;
66707;SDS011;53622;0.000;0.000;2023-05-16T06:44:15;3.28;;;2.60;;
66707;SDS011;53622;0.000;0.000;2023-05-16T06:58:58;3.22;;;2.83;;
66707;SDS011;53622;0.000;0.000;2023-05-16T07:01:28;3.30;;;3.00;;
66707;SDS011;53622;0.000;0.000;2023-05-16T07:03:57;3.30;;;3.00;;
66707;SDS011;53622;0.000;0.000;2023-05-16T07:06:27;4.28;;;2.92;;
66707;SDS011;53622;0.000;0.000;2023-05-16T07:08:56;4.80;;;2.70;;
66707;SDS011;53622;0.000;0.000;2023-05-16T07:11:25;5.05;;;2.67;;
66707;SDS011;53622;0.000;0.000;2023-05-16T07:13:55;3.33;;;3.03;;
66707;SDS011;53622;0.000;0.000;2023-05-16T07:16:25;3.72;;;3.17;;
66707;SDS011;53622;0.000;0.000;2023-05-16T07:18:55;3.33;;;2.63;;
66707;SDS011;53622;0.000;0.000;2023-05-16T07:21:24;3.05;;;2.85;;
66707;SDS011;53622;0.000;0.000;2023-05-16T07:23:53;2.92;;;2.72;;
66707;SDS011;53622;0.000;0.000;2023-05-16T07:26:23;3.08;;;2.80;;
66707;SDS011;53622;0.000;0.000;2023-05-16T07:28:52;2.90;;;2.60;;
66707;SDS011;53622;0.000;0.000;2023-05-16T07:31:22;3.20;;;2.83;;
66707;SDS011;53622;0.000;0.000;2023-05-16T07:33:53;5.32;;;2.88;;
66707;SDS011;53622;0.000;0.000;2023-05-16T07:36:22;4.40;;;2.60;;
66707;SDS011;53622;0.000;0.000;2023-05-16T07:38:52;3.60;;;3.15;;
66707;SDS011;53622;0.000;0.000;2023-05-16T07:41:21;3.85;;;3.05;;
66707;SDS011;53622;0.000;0.000;2023-05-16T07:43:51;3.15;;;2.85;;
66707;SDS011;53622;0.000;0.000;2023-05-16T07:46:21;3.30;;;3.08;;
66707;SDS011;53622;0.000;0.000;2023-05-16T07:48:50;5.80;;;2.83;;
66707;SDS011;53622;0.000;0.000;2023-05-16T07:51:21;3.88;;;3.28;;
66707;SDS011;53622;0.000;0.000;2023-05-16T07:53:50;2.90;;;2.70;;
66707;SDS011;53622;0.000;0.000;2023-05-16T07:56:20;2.95;;;2.70;;
66707;SDS011;53622;0.000;0.000;2023-05-16T07:58:50;6.13;;;2.75;;
66707;SDS011;53622;0.000;0.000;2023-05-16T08:01:21;2.88;;;2.67;;
66707;SDS011;53622;0.000;0.000;2023-05-16T08:03:50;4.25;;;2.83;;
66707;SDS011;53622;0.000;0.000;2023-05-16T08:06:21;4.65;;;3.10;;
66707;SDS011;53622;0.000;0.000;2023-05-16T08:08:50;3.78;;;2.97;;
66707;SDS011;53622;0.000;0.000;2023-05-16T08:11:19;3.38;;;3.00;;
66707;SDS011;53622;0.000;0.000;2023-05-16T08:13:49;2.83;;;2.45;;
66707;SDS011;53622;0.000;0.000;2023-05-16T08:16:19;3.00;;;2.80;;
66707;SDS011;53622;0.000;0.000;2023-05-16T08:18:48;3.67;;;3.10;;
66707;SDS011;53622;0.000;0.000;2023-05-16T08:21:18;4.82;;;3.20;;
66707;SDS011;53622;0.000;0.000;2023-05-16T08:23:48;3.50;;;3.20;;
66707;SDS011;53622;0.000;0.000;2023-05-16T08:26:18;6.13;;;3.47;;
66707;SDS011;53622;0.000;0.000;2023-05-16T08:28:48;5.32;;;3.33;;
66707;SDS011;53622;0.000;0.000;2023-05-16T08:31:18;6.03;;;3.03;;
66707;SDS011;53622;0.000;0.000;2023-05-16T08:33:47;6.18;;;3.83;;
66707;SDS011;53622;0.000;0.000;2023-05-16T08:36:16;3.47;;;3.17;;
66707;SDS011;53622;0.000;0.000;2023-05-16T08:38:46;4.68;;;2.90;;
66707;SDS011;53622;0.000;0.000;2023-05-16T08:41:18;3.78;;;3.38;;
66707;SDS011;53622;0.000;0.000;2023-05-16T08:43:48;4.28;;;3.35;;
66707;SDS011;53622;0.000;0.000;2023-05-16T08:46:18;5.75;;;3.25;;
66707;SDS011;53622;0.000;0.000;2023-05-16T08:48:50;3.78;;;3.40;;
66707;SDS011;53622;0.000;0.000;2023-05-16T08:51:21;3.40;;;3.10;;
66707;SDS011;53622;0.000;0.000;2023-05-16T08:53:53;3.50;;;3.20;;
66707;SDS011;53622;0.000;0.000;2023-05-16T08:56:28;14.18;;;2.80;;
66707;SDS011;53622;0.000;0.000;2023-05-16T08:58:58;5.15;;;3.30;;
66707;SDS011;53622;0.000;0.000;2023-05-16T09:01:29;3.20;;;2.83;;
66707;SDS011;53622;0.000;0.000;2023-05-16T09:03:59;5.07;;;2.70;;
66707;SDS011;53622;0.000;0.000;2023-05-16T09:06:29;3.95;;;2.53;;
66707;SDS011;53622;0.000;0.000;2023-05-16T09:08:58;4.85;;;2.90;;
66707;SDS011;53622;0.000;0.000;2023-05-16T09:11:29;3.63;;;2.70;;
66707;SDS011;53622;0.000;0.000;2023-05-16T09:14:00;3.90;;;2.22;;
66707;SDS011;53622;0.000;0.000;2023-05-16T09:16:31;3.40;;;2.60;;
66707;SDS011;53622;0.000;0.000;2023-05-16T09:19:01;2.65;;;2.38;;
66707;SDS011;53622;0.000;0.000;2023-05-16T09:21:31;4.20;;;2.78;;
66707;SDS011;53622;0.000;0.000;2023-05-16T09:24:02;3.05;;;2.40;;
66707;SDS011;53622;0.000;0.000;2023-05-16T09:26:33;6.57;;;2.33;;
66707;SDS011;53622;0.000;0.000;2023-05-16T09:29:09;3.35;;;2.08;;
66707;SDS011;53622;0.000;0.000;2023-05-16T09:31:39;3.35;;;2.20;;
66707;SDS011;53622;0.000;0.000;2023-05-16T09:34:09;2.25;;;1.80;;
66707;SDS011;53622;0.000;0.000;2023-05-16T09:36:39;3.78;;;2.22;;
66707;SDS011;53622;0.000;0.000;2023-05-16T09:39:10;5.28;;;2.60;;
66707;SDS011;53622;0.000;0.000;2023-05-16T09:41:45;3.97;;;2.25;;
66707;SDS011;53622;0.000;0.000;2023-05-16T09:44:14;7.95;;;2.30;;
66707;SDS011;53622;0.000;0.000;2023-05-16T09:46:46;2.50;;;2.20;;
66707;SDS011;53622;0.000;0.000;2023-05-16T09:49:16;3.65;;;2.85;;
66707;SDS011;53622;0.000;0.000;2023-05-16T09:51:45;6.78;;;2.67;;
66707;SDS011;53622;0.000;0.000;2023-05-16T09:54:14;3.67;;;2.80;;
66707;SDS011;53622;0.000;0.000;2023-05-16T09:56:48;4.25;;;2.70;;
66707;SDS011;53622;0.000;0.000;2023-05-16T09:59:18;4.65;;;3.22;;
66707;SDS011;53622;0.000;0.000;2023-05-16T10:01:49;6.18;;;4.07;;
66707;SDS011;53622;0.000;0.000;2023-05-16T10:04:20;4.45;;;3.88;;
66707;SDS011;53622;0.000;0.000;2023-05-16T10:06:50;4.25;;;3.60;;
66707;SDS011;53622;0.000;0.000;2023-05-16T10:09:21;5.30;;;3.90;;
66707;SDS011;53622;0.000;0.000;2023-05-16T10:11:52;6.28;;;4.22;;
66707;SDS011;53622;0.000;0.000;2023-05-16T10:14:23;4.82;;;3.60;;
66707;SDS011;53622;0.000;0.000;2023-05-16T10:16:53;7.03;;;3.38;;
66707;SDS011;53622;0.000;0.000;2023-05-16T10:19:25;3.95;;;3.53;;
66707;SDS011;53622;0.000;0.000;2023-05-16T10:21:56;4.43;;;3.33;;
66707;SDS011;53622;0.000;0.000;2023-05-16T10:24:30;6.25;;;3.60;;
66707;SDS011;53622;0.000;0.000;2023-05-16T10:27:06;4.55;;;2.90;;
66707;SDS011;53622;0.000;0.000;2023-05-16T10:29:36;3.03;;;2.80;;
66707;SDS011;53622;0.000;0.000;2023-05-16T10:32:21;3.13;;;2.80;;
66707;SDS011;53622;0.000;0.000;2023-05-16T10:34:52;3.38;;;2.65;;
66707;SDS011;53622;0.000;0.000;2023-05-16T10:37:23;2.80;;;2.30;;
66707;SDS011;53622;0.000;0.000;2023-05-16T10:39:53;4.60;;;2.35;;
66707;SDS011;53622;0.000;0.000;2023-05-16T10:42:25;2.88;;;2.40;;
66707;SDS011;53622;0.000;0.000;2023-05-16T10:44:54;3.17;;;1.92;;
66707;SDS011;53622;0.000;0.000;2023-05-16T10:47:36;2.95;;;2.35;;
66707;SDS011;53622;0.000;0.000;2023-05-16T10:50:06;3.65;;;2.20;;
66707;SDS011;53622;0.000;0.000;2023-05-16T10:52:36;4.72;;;2.22;;
66707;SDS011;53622;0.000;0.000;2023-05-16T10:55:05;3.67;;;2.30;;
66707;SDS011;53622;0.000;0.000;2023-05-16T10:57:36;6.80;;;2.08;;
66707;SDS011;53622;0.000;0.000;2023-05-16T11:00:06;3.60;;;1.95;;
66707;SDS011;53622;0.000;0.000;2023-05-16T11:02:39;4.13;;;2.40;;
66707;SDS011;53622;0.000;0.000;2023-05-16T11:05:11;4.20;;;2.38;;
66707;SDS011;53622;0.000;0.000;2023-05-16T11:07:46;8.52;;;2.65;;
66707;SDS011;53622;0.000;0.000;2023-05-16T11:10:33;4.53;;;2.30;;
66707;SDS011;53622;0.000;0.000;2023-05-16T11:13:06;3.80;;;2.55;;
66707;SDS011;53622;0.000;0.000;2023-05-16T11:15:36;5.65;;;2.58;;
66707;SDS011;53622;0.000;0.000;2023-05-16T11:18:05;4.50;;;2.30;;
66707;SDS011;53622;0.000;0.000;2023-05-16T11:20:37;3.78;;;2.20;;
66707;SDS011;53622;0.000;0.000;2023-05-16T11:23:20;3.00;;;2.65;;
66707;SDS011;53622;0.000;0.000;2023-05-16T11:25:52;5.55;;;2.20;;
66707;SDS011;53622;0.000;0.000;2023-05-16T11:28:25;2.55;;;2.30;;
66707;SDS011;53622;0.000;0.000;2023-05-16T11:30:56;3.92;;;2.50;;
66707;SDS011;53622;0.000;0.000;2023-05-16T11:33:29;4.50;;;2.60;;
66707;SDS011;53622;0.000;0.000;2023-05-16T11:36:02;2.40;;;2.20;;
66707;SDS011;53622;0.000;0.000;2023-05-16T11:38:42;4.93;;;2.47;;
66707;SDS011;53622;0.000;0.000;2023-05-16T11:41:12;3.28;;;2.55;;
66707;SDS011;53622;0.000;0.000;2023-05-16T11:43:45;2.70;;;2.15;;
66707;SDS011;53622;0.000;0.000;2023-05-16T11:46:15;3.95;;;2.50;;
66707;SDS011;53622;0.000;0.000;2023-05-16T11:48:44;2.92;;;2.60;;
66707;SDS011;53622;0.000;0.000;2023-05-16T11:51:16;6.15;;;2.42;;
66707;SDS011;53622;0.000;0.000;2023-05-16T11:53:47;3.58;;;2.25;;
66707;SDS011;53622;0.000;0.000;2023-05-16T11:56:17;2.53;;;2.00;;
66707;SDS011;53622;0.000;0.000;2023-05-16T11:58:51;4.93;;;2.40;;
66707;SDS011;53622;0.000;0.000;2023-05-16T12:01:20;2.60;;;2.13;;
66707;SDS011;53622;0.000;0.000;2023-05-16T12:03:54;2.67;;;2.40;;
66707;SDS011;53622;0.000;0.000;2023-05-16T12:06:24;3.13;;;2.60;;
66707;SDS011;53622;0.000;0.000;2023-05-16T12:08:55;4.40;;;2.30;;
66707;SDS011;53622;0.000;0.000;2023-05-16T12:11:24;2.17;;;1.88;;
66707;SDS011;53622;0.000;0.000;2023-05-16T12:13:55;3.78;;;1.83;;
66707;SDS011;53622;0.000;0.000;2023-05-16T12:16:25;2.55;;;2.35;;
66707;SDS011;53622;0.000;0.000;2023-05-16T12:18:58;2.65;;;2.38;;
66707;SDS011;53622;0.000;0.000;2023-05-16T12:21:30;2.10;;;2.00;;
66707;SDS011;53622;0.000;0.000;2023-05-16T12:23:59;3.95;;;2.22;;
66707;SDS011;53622;0.000;0.000;2023-05-16T12:26:30;2.80;;;2.20;;
66707;SDS011;53622;0.000;0.000;2023-05-16T12:29:02;4.75;;;1.88;;
66707;SDS011;53622;0.000;0.000;2023-05-16T12:31:35;2.10;;;1.83;;
66707;SDS011;53622;0.000;0.000;2023-05-16T12:34:16;2.72;;;1.98;;
66707;SDS011;53622;0.000;0.000;2023-05-16T12:36:49;3.25;;;2.15;;
66707;SDS011;53622;0.000;0.000;2023-05-16T12:39:21;2.03;;;1.88;;
66707;SDS011;53622;0.000;0.000;2023-05-16T12:41:50;1.92;;;1.83;;
66707;SDS011;53622;0.000;0.000;2023-05-16T12:44:21;3.22;;;1.85;;
66707;SDS011;53622;0.000;0.000;2023-05-16T12:46:51;1.80;;;1.70;;
66707;SDS011;53622;0.000;0.000;2023-05-16T12:49:21;2.10;;;1.88;;
66707;SDS011;53622;0.000;0.000;2023-05-16T12:51:51;2.00;;;1.73;;
66707;SDS011;53622;0.000;0.000;2023-05-16T12:54:22;1.70;;;1.60;;
66707;SDS011;53622;0.000;0.000;2023-05-16T12:56:51;1.70;;;1.60;;
66707;SDS011;53622;0.000;0.000;2023-05-16T12:59:22;3.05;;;2.08;;
66707;SDS011;53622;0.000;0.000;2023-05-16T13:01:55;2.33;;;1.50;;
66707;SDS011;53622;0.000;0.000;2023-05-16T13:04:24;1.90;;;1.70;;
66707;SDS011;53622;0.000;0.000;2023-05-16T13:06:54;3.55;;;1.80;;
66707;SDS011;53622;0.000;0.000;2023-05-16T13:09:26;2.83;;;1.90;;
66707;SDS011;53622;0.000;0.000;2023-05-16T13:11:59;1.92;;;1.42;;
66707;SDS011;53622;0.000;0.000;2023-05-16T13:14:30;2.20;;;1.98;;
66707;SDS011;53622;0.000;0.000;2023-05-16T13:16:59;4.72;;;1.90;;
66707;SDS011;53622;0.000;0.000;2023-05-16T13:19:28;2.53;;;2.10;;
66707;SDS011;53622;0.000;0.000;2023-05-16T13:21:58;4.50;;;1.98;;
66707;SDS011;53622;0.000;0.000;2023-05-16T13:24:28;2.83;;;2.03;;
66707;SDS011;53622;0.000;0.000;2023-05-16T13:26:57;2.97;;;1.80;;
66707;SDS011;53622;0.000;0.000;2023-05-16T13:29:31;3.50;;;1.88;;
66707;SDS011;53622;0.000;0.000;2023-05-16T13:32:00;3.47;;;1.73;;
66707;SDS011;53622;0.000;0.000;2023-05-16T13:34:29;3.35;;;2.05;;
66707;SDS011;53622;0.000;0.000;2023-05-16T13:36:58;2.25;;;1.80;;
66707;SDS011;53622;0.000;0.000;2023-05-16T13:39:28;2.85;;;1.90;;
66707;SDS011;53622;0.000;0.000;2023-05-16T13:41:57;1.98;;;1.60;;
66707;SDS011;53622;0.000;0.000;2023-05-16T13:56:14;1.90;;;1.80;;
66707;SDS011;53622;0.000;0.000;2023-05-16T13:58:43;2.25;;;1.88;;
66707;SDS011;53622;0.000;0.000;2023-05-16T14:01:18;2.30;;;2.10;;
66707;SDS011;53622;0.000;0.000;2023-05-16T14:03:48;2.13;;;2.00;;
66707;SDS011;53622;0.000;0.000;2023-05-16T14:06:18;2.30;;;2.10;;
66707;SDS011;53622;0.000;0.000;2023-05-16T14:08:48;2.58;;;1.83;;
66707;SDS011;53622;0.000;0.000;2023-05-16T14:11:19;4.97;;;2.00;;
66707;SDS011;53622;0.000;0.000;2023-05-16T14:13:55;4.53;;;2.05;;
66707;SDS011;53622;0.000;0.000;2023-05-16T14:16:25;2.17;;;1.98;;
66707;SDS011;53622;0.000;0.000;2023-05-16T14:18:55;2.40;;;2.20;;
66707;SDS011;53622;0.000;0.000;2023-05-16T14:21:25;2.30;;;2.10;;
66707;SDS011;53622;0.000;0.000;2023-05-16T14:23:54;3.30;;;2.17;;
66707;SDS011;53622;0.000;0.000;2023-05-16T14:26:24;2.15;;;2.00;;
66707;SDS011;53622;0.000;0.000;2023-05-16T14:28:54;2.40;;;1.77;;
66707;SDS011;53622;0.000;0.000;2023-05-16T14:31:23;2.17;;;1.90;;
66707;SDS011;53622;0.000;0.000;2023-05-16T14:33:53;1.88;;;1.77;;
66707;SDS011;53622;0.000;0.000;2023-05-16T14:36:22;2.70;;;2.20;;
66707;SDS011;53622;0.000;0.000;2023-05-16T14:38:51;3.05;;;2.33;;
66707;SDS011;53622;0.000;0.000;2023-05-16T14:41:20;2.00;;;1.88;;
66707;SDS011;53622;0.000;0.000;2023-05-16T14:43:51;2.10;;;1.75;;
66707;SDS011;53622;0.000;0.000;2023-05-16T14:46:20;2.03;;;1.73;;
66707;SDS011;53622;0.000;0.000;2023-05-16T14:48:50;2.40;;;1.95;;
66707;SDS011;53622;0.000;0.000;2023-05-16T14:51:19;3.55;;;2.10;;
66707;SDS011;53622;0.000;0.000;2023-05-16T14:53:48;2.60;;;2.00;;
66707;SDS011;53622;0.000;0.000;2023-05-16T14:56:18;6.32;;;2.15;;
66707;SDS011;53622;0.000;0.000;2023-05-16T14:58:48;1.77;;;1.60;;
66707;SDS011;53622;0.000;0.000;2023-05-16T15:01:19;2.97;;;1.85;;
66707;SDS011;53622;0.000;0.000;2023-05-16T15:03:49;4.38;;;2.03;;
66707;SDS011;53622;0.000;0.000;2023-05-16T15:06:22;3.15;;;1.80;;
66707;SDS011;53622;0.000;0.000;2023-05-16T15:08:52;2.03;;;1.50;;
66707;SDS011;53622;0.000;0.000;2023-05-16T15:11:21;2.38;;;1.40;;
66707;SDS011;53622;0.000;0.000;2023-05-16T15:13:50;4.50;;;1.83;;
66707;SDS011;53622;0.000;0.000;2023-05-16T15:16:21;4.70;;;1.73;;
66707;SDS011;53622;0.000;0.000;2023-05-16T15:18:51;4.45;;;1.98;;
66707;SDS011;53622;0.000;0.000;2023-05-16T15:21:20;2.47;;;1.75;;
66707;SDS011;53622;0.000;0.000;2023-05-16T15:23:51;4.30;;;1.80;;
66707;SDS011;53622;0.000;0.000;2023-05-16T15:26:21;4.75;;;1.70;;
66707;SDS011;53622;0.000;0.000;2023-05-16T15:28:51;4.38;;;1.70;;
66707;SDS011;53622;0.000;0.000;2023-05-16T15:31:23;3.78;;;1.42;;
66707;SDS011;53622;0.000;0.000;2023-05-16T15:33:52;2.65;;;1.52;;
66707;SDS011;53622;0.000;0.000;2023-05-16T15:36:22;2.10;;;1.55;;
66707;SDS011;53622;0.000;0.000;2023-05-16T15:38:51;2.38;;;1.50;;
66707;SDS011;53622;0.000;0.000;2023-05-16T15:41:20;4.60;;;1.80;;
66707;SDS011;53622;0.000;0.000;2023-05-16T15:44:10;4.18;;;1.80;;